Time;durP1;ratioP1;P1;durP2;ratioP2;P2;SDS_P1;SDS_P2;PMS_P1;PMS_P2;Temp;Humidity;BMP_temperature;BMP_pressure;BME280_temperature;BME280_humidity;BME280_pressure;Samples;Min_cycle;Max_cycle;Signal;HPM_P1;HPM_P2
2022/01/24 00:01:50;;;;;;;17.27;11.00;;;5.80;1.00;;;;;;5002634;28;20232;-62
2022/01/24 00:04:17;;;;;;;15.33;10.83;;;5.80;1.00;;;;;;4983655;28;20660;-63
2022/01/24 00:06:44;;;;;;;15.43;10.40;;;5.80;1.00;;;;;;4969091;28;20683;-62
2022/01/24 00:09:12;;;;;;;15.93;10.33;;;5.80;1.00;;;;;;4980810;28;20225;-63
2022/01/24 00:17:18;;;;;;;15.67;10.87;;;5.70;1.00;;;;;;5000558;28;20604;-64
2022/01/24 00:28:04;;;;;;;15.50;10.33;;;5.70;1.00;;;;;;4985059;28;20295;-63
2022/01/24 00:30:32;;;;;;;16.67;9.63;;;5.70;1.00;;;;;;4981709;28;20263;-65
2022/01/24 00:32:59;;;;;;;17.67;9.93;;;5.70;1.00;;;;;;4984509;28;20754;-63
2022/01/24 00:35:26;;;;;;;16.37;10.97;;;5.80;1.00;;;;;;4962326;28;20565;-64
2022/01/24 00:37:58;;;;;;;15.77;10.17;;;5.80;1.00;;;;;;5001590;28;20224;-63
2022/01/24 00:40:28;;;;;;;17.30;10.63;;;5.80;1.00;;;;;;4968593;28;20267;-65
2022/01/24 00:42:59;;;;;;;17.10;10.33;;;5.80;1.00;;;;;;5000517;28;20243;-65
2022/01/24 00:54:42;;;;;;;19.07;12.67;;;5.90;1.00;;;;;;5001348;28;20216;-64
2022/01/24 00:56:51;;;;;;;17.00;11.40;;;5.90;1.00;;;;;;4999623;28;20299;-65
2022/01/24 00:59:19;;;;;;;18.73;10.93;;;5.90;1.00;;;;;;5000080;28;20196;-64
2022/01/24 01:01:46;;;;;;;17.67;10.90;;;5.90;1.00;;;;;;4984014;28;20296;-64
2022/01/24 01:04:14;;;;;;;17.33;11.27;;;5.90;1.00;;;;;;4974971;28;20287;-65
2022/01/24 01:06:45;;;;;;;16.10;11.13;;;5.80;1.00;;;;;;4982309;28;20200;-65
2022/01/24 01:20:24;;;;;;;10.43;7.70;;;5.80;1.00;;;;;;5001265;28;20244;-64
2022/01/24 01:22:53;;;;;;;12.37;8.47;;;5.80;1.00;;;;;;4995853;28;20196;-63
2022/01/24 01:25:21;;;;;;;13.50;8.97;;;5.80;1.00;;;;;;4984918;28;20247;-65
2022/01/24 01:27:50;;;;;;;14.73;9.37;;;5.80;1.00;;;;;;4984318;28;20220;-64
2022/01/24 01:30:21;;;;;;;12.10;8.93;;;5.80;1.00;;;;;;4997545;28;20229;-65
2022/01/24 01:33:06;;;;;;;15.30;10.00;;;5.80;1.00;;;;;;4982846;28;20291;-63
2022/01/24 01:38:32;;;;;;;15.63;9.10;;;5.80;1.00;;;;;;4998417;28;20260;-63
2022/01/24 01:55:16;;;;;;;12.77;8.37;;;5.70;1.00;;;;;;4998686;28;20227;-63
2022/01/24 01:57:41;;;;;;;12.70;8.93;;;5.70;1.00;;;;;;4995620;28;20197;-64
2022/01/24 02:00:09;;;;;;;11.87;9.33;;;5.70;1.00;;;;;;4980977;28;20288;-65
2022/01/24 02:02:42;;;;;;;12.20;7.93;;;5.70;1.00;;;;;;5001528;28;20526;-64
2022/01/24 02:05:11;;;;;;;10.90;6.87;;;5.70;1.00;;;;;;5004592;28;20219;-63
2022/01/24 02:07:51;;;;;;;11.00;6.87;;;5.70;1.00;;;;;;4989810;28;20299;-63
2022/01/24 02:10:21;;;;;;;8.67;6.67;;;5.80;1.00;;;;;;5002429;28;20196;-62
2022/01/24 02:12:52;;;;;;;11.13;7.83;;;5.70;1.00;;;;;;5005685;28;20648;-62
2022/01/24 02:18:13;;;;;;;12.40;7.70;;;5.70;1.00;;;;;;4986530;28;20255;-62
2022/01/24 02:21:09;;;;;;;12.37;7.20;;;5.60;1.00;;;;;;4990007;28;20197;-63
2022/01/24 02:23:46;;;;;;;10.20;7.80;;;5.70;1.00;;;;;;4988990;28;20197;-63
2022/01/24 02:26:22;;;;;;;10.87;6.90;;;5.70;1.00;;;;;;4966212;28;20328;-64
2022/01/24 02:34:24;;;;;;;6.77;4.77;;;5.70;1.00;;;;;;4991599;28;20232;-63
2022/01/24 02:36:53;;;;;;;6.80;4.17;;;5.70;99.90;;;;;;4987376;28;20208;-62
2022/01/24 02:50:36;;;;;;;5.77;4.20;;;5.70;99.90;;;;;;5008638;28;20724;-63
2022/01/24 02:53:03;;;;;;;5.13;4.27;;;5.70;99.90;;;;;;4989982;28;20229;-64
2022/01/24 02:55:32;;;;;;;5.03;4.53;;;5.70;99.90;;;;;;4991912;28;20208;-63
2022/01/24 02:58:01;;;;;;;5.50;4.30;;;5.70;99.90;;;;;;5008051;28;20221;-63
2022/01/24 03:00:39;;;;;;;7.53;4.40;;;5.70;1.00;;;;;;4993513;28;20220;-64
2022/01/24 03:03:06;;;;;;;8.40;4.63;;;5.70;1.00;;;;;;4982897;28;20193;-64
2022/01/24 03:05:34;;;;;;;5.57;4.47;;;5.70;1.00;;;;;;5009586;28;20201;-64
2022/01/24 03:08:06;;;;;;;4.57;4.03;;;5.70;1.00;;;;;;5000688;28;20204;-64
2022/01/24 03:10:40;;;;;;;6.50;5.17;;;5.70;1.00;;;;;;4998722;28;20232;-64
2022/01/24 03:15:55;;;;;;;8.10;5.63;;;5.70;1.00;;;;;;4989399;28;21085;-63
2022/01/24 03:18:23;;;;;;;5.93;5.20;;;5.70;1.00;;;;;;4974679;28;20185;-64
2022/01/24 03:20:50;;;;;;;5.33;4.47;;;5.60;1.00;;;;;;4968607;28;20241;-64
2022/01/24 03:23:19;;;;;;;5.57;4.20;;;5.70;1.00;;;;;;4972767;28;20678;-64
2022/01/24 03:25:47;;;;;;;4.77;3.87;;;5.70;1.00;;;;;;4970011;28;20210;-63
2022/01/24 03:28:14;;;;;;;3.43;3.13;;;5.60;99.90;;;;;;4955444;28;20224;-65
2022/01/24 03:30:43;;;;;;;4.77;3.90;;;5.70;99.90;;;;;;4953604;28;20226;-63
2022/01/24 03:33:10;;;;;;;3.93;3.43;;;5.70;99.90;;;;;;4971064;28;20205;-64
2022/01/24 03:35:43;;;;;;;4.00;3.27;;;5.70;99.90;;;;;;4971197;28;20222;-64
2022/01/24 03:38:11;;;;;;;4.80;4.30;;;5.70;99.90;;;;;;4986013;28;20237;-63
2022/01/24 03:40:39;;;;;;;5.70;3.80;;;5.70;99.90;;;;;;4984749;28;20975;-63
2022/01/24 03:43:08;;;;;;;3.63;3.30;;;5.60;99.90;;;;;;4971034;28;20534;-63
2022/01/24 03:48:26;;;;;;;8.50;4.50;;;5.70;99.90;;;;;;4987676;28;20288;-62
2022/01/24 03:50:54;;;;;;;4.57;3.83;;;5.60;1.00;;;;;;4964484;28;20245;-63
2022/01/24 03:53:21;;;;;;;5.50;3.80;;;5.60;1.00;;;;;;4969256;28;20902;-62
2022/01/24 03:55:48;;;;;;;4.30;3.90;;;5.60;1.00;;;;;;4971774;28;20253;-63
2022/01/24 03:58:16;;;;;;;6.57;4.07;;;5.50;1.00;;;;;;4986611;28;20202;-63
2022/01/24 04:00:43;;;;;;;4.87;3.83;;;5.60;1.00;;;;;;4965508;28;20252;-63
2022/01/24 04:03:11;;;;;;;4.73;3.87;;;5.60;1.00;;;;;;4954116;28;20257;-64
2022/01/24 04:05:38;;;;;;;4.60;3.70;;;5.60;1.00;;;;;;4957110;28;20296;-64
2022/01/24 04:08:07;;;;;;;4.53;4.00;;;5.60;1.00;;;;;;4985072;28;20549;-63
2022/01/24 04:10:41;;;;;;;4.40;4.00;;;5.60;1.00;;;;;;4972623;28;20232;-63
2022/01/24 04:13:24;;;;;;;6.80;4.00;;;5.60;1.00;;;;;;4971349;28;20193;-65
2022/01/24 04:19:28;;;;;;;4.50;3.80;;;5.60;1.00;;;;;;4972688;28;20198;-63
2022/01/24 04:21:36;;;;;;;4.23;3.47;;;5.60;1.00;;;;;;4985022;28;20217;-63
2022/01/24 04:26:33;;;;;;;7.63;4.47;;;5.50;1.00;;;;;;4986481;28;20201;-63
2022/01/24 04:29:00;;;;;;;4.93;3.90;;;5.50;1.00;;;;;;4965433;28;20201;-63
2022/01/24 04:31:28;;;;;;;4.10;3.20;;;5.60;99.90;;;;;;4971019;28;20236;-62
2022/01/24 04:33:58;;;;;;;4.37;3.97;;;5.50;99.90;;;;;;4970723;28;20209;-62
2022/01/24 04:36:26;;;;;;;6.10;3.97;;;5.50;1.00;;;;;;4972392;28;20304;-63
2022/01/24 04:38:53;;;;;;;3.70;3.30;;;5.50;1.00;;;;;;4988729;28;20281;-63
2022/01/24 04:41:28;;;;;;;6.20;3.70;;;5.50;1.00;;;;;;4987153;28;20261;-62
2022/01/24 04:52:32;;;;;;;3.97;3.07;;;5.50;99.90;;;;;;4946139;28;20211;-62
2022/01/24 04:55:01;;;;;;;3.43;3.07;;;5.50;99.90;;;;;;4985939;28;20277;-61
2022/01/24 04:57:29;;;;;;;2.77;2.57;;;5.60;99.90;;;;;;4971226;28;20205;-61
2022/01/24 05:00:00;;;;;;;6.10;4.07;;;5.50;99.90;;;;;;4964889;28;20211;-62
2022/01/24 05:02:27;;;;;;;3.40;3.10;;;5.50;99.90;;;;;;4985308;28;20276;-61
2022/01/24 05:04:56;;;;;;;3.37;2.90;;;5.60;99.90;;;;;;4979867;28;20213;-63
2022/01/24 05:07:23;;;;;;;3.77;2.97;;;5.60;99.90;;;;;;4970819;28;20205;-63
2022/01/24 05:21:11;;;;;;;3.37;3.07;;;5.60;99.90;;;;;;4983310;28;20617;-63
2022/01/24 05:21:31;;;;;;;4.00;3.60;;;5.60;99.90;;;;;;4986649;28;20198;-63
2022/01/24 05:24:00;;;;;;;3.53;3.13;;;5.60;99.90;;;;;;4986120;28;20189;-64
2022/01/24 05:26:27;;;;;;;3.40;3.10;;;5.60;99.90;;;;;;4968962;28;20201;-63
2022/01/24 05:28:54;;;;;;;4.63;3.70;;;5.60;99.90;;;;;;4955602;28;20205;-64
2022/01/24 05:31:21;;;;;;;5.80;4.07;;;5.60;99.90;;;;;;4971111;28;20253;-63
2022/01/24 05:33:49;;;;;;;4.83;3.57;;;5.60;99.90;;;;;;4980893;28;20225;-63
2022/01/24 05:36:18;;;;;;;6.77;6.10;;;5.60;99.90;;;;;;4946000;28;20223;-63
2022/01/24 05:38:45;;;;;;;7.00;5.07;;;5.60;99.90;;;;;;4984492;28;20276;-62
2022/01/24 05:41:17;;;;;;;5.23;4.00;;;5.60;99.90;;;;;;4967666;28;20847;-63
2022/01/24 05:43:50;;;;;;;3.80;3.50;;;5.50;99.90;;;;;;4982383;28;20209;-64
2022/01/24 05:46:18;;;;;;;4.23;3.47;;;5.50;99.90;;;;;;4954452;28;20209;-63
2022/01/24 05:48:48;;;;;;;4.73;3.90;;;5.50;99.90;;;;;;4967217;28;20241;-63
2022/01/24 05:51:17;;;;;;;4.50;3.60;;;6.80;99.90;;;;;;4984865;28;20209;-65
2022/01/24 05:53:47;;;;;;;4.57;4.00;;;5.50;99.90;;;;;;4969132;28;20206;-64
2022/01/24 05:56:14;;;;;;;4.13;3.60;;;5.50;99.90;;;;;;4980866;28;20213;-64
2022/01/24 05:58:40;;;;;;;4.27;3.80;;;5.50;99.90;;;;;;4969853;28;20211;-64
2022/01/24 06:01:10;;;;;;;4.10;3.60;;;5.50;99.90;;;;;;4985111;28;20225;-63
2022/01/24 06:03:37;;;;;;;5.57;3.47;;;5.50;99.90;;;;;;4985469;28;20193;-63
2022/01/24 06:06:05;;;;;;;5.10;3.33;;;5.50;99.90;;;;;;4974976;28;20208;-64
2022/01/24 06:08:31;;;;;;;3.37;3.03;;;5.60;99.90;;;;;;4991669;28;20711;-63
2022/01/24 06:10:59;;;;;;;3.27;2.97;;;5.50;99.90;;;;;;4991805;28;20198;-64
2022/01/24 06:13:26;;;;;;;4.77;3.90;;;5.50;99.90;;;;;;4961945;28;20917;-63
2022/01/24 06:15:53;;;;;;;4.13;3.37;;;5.60;99.90;;;;;;4967503;28;20324;-63
2022/01/24 06:18:21;;;;;;;3.57;3.23;;;5.50;99.90;;;;;;4964120;28;20195;-64
2022/01/24 06:20:50;;;;;;;6.43;5.60;;;5.60;99.90;;;;;;4990096;28;20189;-63
2022/01/24 06:23:18;;;;;;;10.57;9.47;;;5.60;99.90;;;;;;4972693;28;20195;-63
2022/01/24 06:25:45;;;;;;;7.93;7.17;;;5.50;99.90;;;;;;4972790;28;20225;-64
2022/01/24 06:28:12;;;;;;;5.63;5.00;;;5.50;99.90;;;;;;4973022;28;20818;-64
2022/01/24 06:30:39;;;;;;;7.47;4.27;;;5.50;99.90;;;;;;4967524;28;20214;-63
2022/01/24 06:33:08;;;;;;;4.43;4.03;;;5.50;99.90;;;;;;4975051;28;20256;-64
2022/01/24 06:35:40;;;;;;;6.90;4.07;;;5.50;99.90;;;;;;4970233;28;20259;-62
2022/01/24 06:38:11;;;;;;;4.17;3.80;;;5.50;99.90;;;;;;4974133;28;20263;-64
2022/01/24 06:40:37;;;;;;;4.70;3.80;;;5.50;99.90;;;;;;4956236;28;20289;-62
2022/01/24 06:43:06;;;;;;;5.20;3.80;;;5.50;99.90;;;;;;4982340;28;20229;-62
2022/01/24 06:45:38;;;;;;;5.03;4.50;;;5.50;99.90;;;;;;4972816;28;20383;-63
2022/01/24 06:48:05;;;;;;;4.30;3.73;;;5.50;99.90;;;;;;4972457;28;20264;-62
2022/01/24 06:50:35;;;;;;;4.00;3.60;;;5.50;99.90;;;;;;4956868;28;20198;-62
2022/01/24 06:53:02;;;;;;;4.63;4.23;;;5.40;99.90;;;;;;4955926;28;20231;-63
2022/01/24 06:55:29;;;;;;;4.37;3.97;;;5.40;99.90;;;;;;4987269;28;20633;-62
2022/01/24 06:57:59;;;;;;;4.40;3.93;;;5.40;99.90;;;;;;4986855;28;20197;-62
2022/01/24 07:00:26;;;;;;;6.00;4.23;;;5.40;99.90;;;;;;4987800;28;20236;-61
2022/01/24 07:02:56;;;;;;;4.67;4.03;;;5.40;99.90;;;;;;4971632;28;20733;-63
2022/01/24 07:05:25;;;;;;;4.83;3.40;;;5.30;1.00;;;;;;4989290;28;20194;-62
2022/01/24 07:07:56;;;;;;;5.03;3.87;;;5.40;99.90;;;;;;4987149;28;20248;-63
2022/01/24 07:10:30;;;;;;;5.23;3.73;;;5.40;99.90;;;;;;4956716;28;20201;-62
2022/01/24 07:12:57;;;;;;;4.70;3.60;;;5.40;99.90;;;;;;4971149;28;20241;-62
2022/01/24 07:15:32;;;;;;;5.13;3.57;;;5.40;99.90;;;;;;4956419;28;20238;-62
2022/01/24 07:20:26;;;;;;;6.63;4.10;;;5.40;99.90;;;;;;4985474;28;20220;-63
2022/01/24 07:22:53;;;;;;;4.60;3.97;;;5.30;99.90;;;;;;4964228;28;20197;-62
2022/01/24 07:25:23;;;;;;;5.90;4.30;;;5.40;99.90;;;;;;4951233;28;20677;-62
2022/01/24 07:27:50;;;;;;;5.17;4.10;;;5.40;99.90;;;;;;4972014;28;20212;-62
2022/01/24 07:30:22;;;;;;;4.77;3.90;;;5.50;99.90;;;;;;4956046;28;20896;-62
2022/01/24 07:32:49;;;;;;;6.10;3.80;;;5.40;99.90;;;;;;4987265;28;20202;-62
2022/01/24 07:35:16;;;;;;;5.10;4.10;;;5.50;99.90;;;;;;4986251;28;20205;-62
2022/01/24 07:37:45;;;;;;;7.37;4.17;;;5.50;99.90;;;;;;4969682;28;20296;-63
2022/01/24 07:40:13;;;;;;;4.63;4.03;;;5.50;99.90;;;;;;4971951;28;20276;-62
2022/01/24 07:42:53;;;;;;;5.50;4.13;;;5.50;99.90;;;;;;4983815;28;20204;-63
2022/01/24 07:45:25;;;;;;;5.93;4.53;;;5.50;99.90;;;;;;4987936;28;20185;-62
2022/01/24 07:47:58;;;;;;;5.20;4.43;;;5.50;99.90;;;;;;4973504;28;20958;-62
2022/01/24 07:50:27;;;;;;;4.33;3.80;;;5.50;99.90;;;;;;4969752;28;20194;-62
2022/01/24 07:52:59;;;;;;;4.80;4.00;;;5.50;99.90;;;;;;4986729;28;20206;-62
2022/01/24 07:55:26;;;;;;;5.57;4.47;;;5.60;99.90;;;;;;4952896;28;20292;-62
2022/01/24 07:57:53;;;;;;;5.20;4.17;;;5.60;99.90;;;;;;4969073;28;20208;-63
2022/01/24 08:00:20;;;;;;;4.57;3.93;;;5.60;99.90;;;;;;4967979;28;20237;-63
2022/01/24 08:02:47;;;;;;;4.70;4.00;;;5.50;99.90;;;;;;4984124;28;20277;-64
2022/01/24 08:05:17;;;;;;;6.20;4.23;;;5.60;99.90;;;;;;4966200;28;20277;-63
2022/01/24 08:07:44;;;;;;;5.10;4.43;;;5.60;99.90;;;;;;4964925;28;20272;-62
2022/01/24 08:10:14;;;;;;;5.40;4.37;;;5.60;99.90;;;;;;4948897;28;20195;-63
2022/01/24 08:12:44;;;;;;;5.30;4.80;;;5.70;99.90;;;;;;4983056;28;20312;-63
2022/01/24 08:15:14;;;;;;;6.00;4.47;;;5.60;99.90;;;;;;4976157;28;20236;-63
2022/01/24 08:17:44;;;;;;;5.10;4.13;;;5.60;99.90;;;;;;4968365;28;20208;-64
2022/01/24 08:20:13;;;;;;;8.73;7.27;;;5.60;99.90;;;;;;4953955;28;20201;-64
2022/01/24 08:23:00;;;;;;;13.50;9.37;;;5.60;99.90;;;;;;4980757;28;20217;-64
2022/01/24 08:25:29;;;;;;;8.27;6.63;;;5.70;99.90;;;;;;4959991;28;20201;-65
2022/01/24 08:27:56;;;;;;;8.47;4.70;;;5.80;99.90;;;;;;4966668;28;20257;-63
2022/01/24 08:30:27;;;;;;;18.27;10.83;;;5.80;99.90;;;;;;4981204;28;20193;-62
2022/01/24 08:32:54;;;;;;;9.40;5.87;;;5.80;99.90;;;;;;4969814;28;20269;-63
2022/01/24 08:35:22;;;;;;;7.23;5.30;;;5.90;99.90;;;;;;4978778;28;20205;-61
2022/01/24 08:37:50;;;;;;;9.30;6.53;;;5.90;99.90;;;;;;4970279;28;20289;-63
2022/01/24 08:40:25;;;;;;;8.57;6.33;;;5.80;94.80;;;;;;4965853;28;20273;-63
2022/01/24 08:43:06;;;;;;;6.73;4.90;;;5.80;99.90;;;;;;4968126;28;20221;-62
2022/01/24 08:48:10;;;;;;;6.10;5.50;;;5.70;99.90;;;;;;4960937;28;20745;-61
2022/01/24 08:50:37;;;;;;;10.57;9.53;;;5.70;99.90;;;;;;4955540;28;20207;-62
2022/01/24 08:53:04;;;;;;;7.63;6.90;;;5.70;99.90;;;;;;4969835;28;20673;-62
2022/01/24 08:55:35;;;;;;;11.33;7.47;;;5.90;93.40;;;;;;4957264;28;20269;-62
2022/01/24 08:58:04;;;;;;;9.13;6.67;;;5.90;99.90;;;;;;4959097;28;20222;-62
2022/01/24 09:00:32;;;;;;;8.00;6.27;;;5.90;99.90;;;;;;4971059;28;20665;-61
2022/01/24 09:03:01;;;;;;;23.17;15.37;;;5.60;99.90;;;;;;4960032;28;20202;-61
2022/01/24 09:05:34;;;;;;;15.57;10.33;;;5.80;99.90;;;;;;4936978;28;20202;-62
2022/01/24 09:08:05;;;;;;;8.90;7.60;;;5.80;99.90;;;;;;4970136;28;20221;-62
2022/01/24 09:10:34;;;;;;;8.57;7.67;;;5.80;99.90;;;;;;4972621;28;20198;-62
2022/01/24 09:13:04;;;;;;;9.23;8.23;;;5.80;99.90;;;;;;4968628;28;20195;-62
2022/01/24 09:15:31;;;;;;;9.17;8.20;;;5.80;99.90;;;;;;4975172;28;20733;-63
2022/01/24 09:18:02;;;;;;;10.07;8.77;;;5.90;99.90;;;;;;4959480;28;20492;-62
2022/01/24 09:20:29;;;;;;;14.80;10.93;;;5.90;99.90;;;;;;4974921;28;20227;-62
2022/01/24 09:22:56;;;;;;;16.57;13.83;;;5.90;99.90;;;;;;4955196;28;20198;-62
2022/01/24 09:25:24;;;;;;;13.73;11.70;;;6.00;57.40;;;;;;4982263;28;20511;-62
2022/01/24 09:27:56;;;;;;;6.97;6.27;;;6.00;46.70;;;;;;4985073;28;20677;-62
2022/01/24 09:30:24;;;;;;;6.33;5.40;;;6.00;45.40;;;;;;4974446;28;20768;-62
2022/01/24 09:32:51;;;;;;;5.67;5.17;;;6.10;19.00;;;;;;4959652;28;20210;-62
2022/01/24 09:35:21;;;;;;;6.67;5.53;;;6.20;1.00;;;;;;4982772;28;20206;-64
2022/01/24 09:37:49;;;;;;;9.97;5.20;;;6.20;1.00;;;;;;4962935;28;20250;-62
2022/01/24 09:40:17;;;;;;;7.57;6.40;;;6.10;1.00;;;;;;4946996;28;20659;-62
2022/01/24 09:42:47;;;;;;;7.47;6.30;;;6.20;1.00;;;;;;4978219;28;20281;-61
2022/01/24 09:45:16;;;;;;;8.70;7.00;;;6.10;1.00;;;;;;4964086;28;20320;-63
2022/01/24 09:47:46;;;;;;;7.10;6.20;;;6.20;1.00;;;;;;4976992;28;20202;-63
2022/01/24 09:50:15;;;;;;;6.83;6.10;;;6.20;2.30;;;;;;4976561;28;20246;-63
2022/01/24 09:52:45;;;;;;;6.73;5.33;;;6.20;27.10;;;;;;4965476;28;20201;-62
2022/01/24 09:55:14;;;;;;;5.70;5.10;;;6.20;20.50;;;;;;4963553;28;20280;-62
2022/01/24 09:57:47;;;;;;;8.83;6.30;;;6.10;1.00;;;;;;4974653;28;20226;-63
2022/01/24 10:00:18;;;;;;;5.77;5.00;;;5.90;94.10;;;;;;4976272;28;20281;-62
2022/01/24 10:02:50;;;;;;;8.03;5.27;;;6.00;62.60;;;;;;4961421;28;20197;-63
2022/01/24 10:05:34;;;;;;;6.17;5.30;;;6.00;27.10;;;;;;4970176;28;20198;-62
2022/01/24 10:08:24;;;;;;;6.50;5.60;;;6.00;75.70;;;;;;4959438;28;20673;-62
2022/01/24 10:10:56;;;;;;;8.50;6.30;;;5.80;27.70;;;;;;4964645;28;20533;-63
2022/01/24 10:16:44;;;;;;;7.17;6.20;;;5.90;1.00;;;;;;4975153;28;20661;-62
2022/01/24 10:19:15;;;;;;;7.10;6.40;;;5.90;89.30;;;;;;4974600;28;20216;-63
2022/01/24 10:22:04;;;;;;;8.43;6.90;;;5.90;32.00;;;;;;4967208;28;20212;-61
2022/01/24 10:24:48;;;;;;;8.23;6.80;;;5.90;65.30;;;;;;4976259;28;20249;-62
2022/01/24 10:27:24;;;;;;;7.47;6.67;;;5.90;1.00;;;;;;4971684;28;20224;-62
2022/01/24 10:30:10;;;;;;;8.27;7.03;;;5.80;9.40;;;;;;4975259;28;20190;-62
2022/01/24 10:32:43;;;;;;;9.43;6.90;;;5.90;51.20;;;;;;4974367;28;20294;-62
2022/01/24 10:35:37;;;;;;;7.77;6.50;;;5.80;1.00;;;;;;4978594;28;20186;-62
2022/01/24 10:41:17;;;;;;;9.67;7.47;;;6.00;1.00;;;;;;4977960;28;20862;-63
2022/01/24 10:43:46;;;;;;;8.70;7.10;;;6.00;1.00;;;;;;4976508;28;20201;-64
2022/01/24 10:46:21;;;;;;;8.23;7.00;;;6.10;1.00;;;;;;4975592;28;20273;-62
2022/01/24 10:48:50;;;;;;;9.20;7.20;;;5.80;1.00;;;;;;4975991;28;20276;-62
2022/01/24 10:51:20;;;;;;;7.40;6.20;;;6.10;1.00;;;;;;4966019;28;20198;-62
2022/01/24 10:53:53;;;;;;;11.10;7.57;;;6.00;1.00;;;;;;4968303;28;20206;-62
2022/01/24 10:56:39;;;;;;;8.90;7.00;;;6.00;3.30;;;;;;4947693;28;20214;-63
2022/01/24 10:59:14;;;;;;;8.03;7.10;;;6.00;11.10;;;;;;4964769;28;20210;-62
2022/01/24 11:01:55;;;;;;;10.27;7.00;;;5.90;29.50;;;;;;4967592;28;20317;-63
2022/01/24 11:04:24;;;;;;;7.63;6.77;;;5.90;46.30;;;;;;4966496;28;20190;-62
2022/01/24 11:06:59;;;;;;;7.43;6.67;;;5.90;67.30;;;;;;4946604;28;20210;-62
2022/01/24 11:09:35;;;;;;;7.97;7.17;;;5.90;58.50;;;;;;4959932;28;20194;-63
2022/01/24 11:12:05;;;;;;;7.30;6.53;;;5.90;32.90;;;;;;4968549;28;20288;-61
2022/01/24 11:14:36;;;;;;;8.80;6.30;;;5.90;1.00;;;;;;4949764;28;20234;-62
2022/01/24 11:17:05;;;;;;;7.30;6.53;;;5.80;47.60;;;;;;4962436;28;20321;-61
2022/01/24 11:19:43;;;;;;;8.33;6.73;;;5.80;58.70;;;;;;4975695;28;20201;-61
2022/01/24 11:22:32;;;;;;;10.83;6.50;;;5.80;80.60;;;;;;4965426;28;20632;-62
2022/01/24 11:25:06;;;;;;;8.00;6.97;;;5.80;33.20;;;;;;4946094;28;20209;-63
2022/01/24 11:27:41;;;;;;;6.70;6.00;;;5.80;94.30;;;;;;4960572;28;20337;-62
2022/01/24 11:30:18;;;;;;;8.07;6.67;;;5.90;31.10;;;;;;4978158;28;20277;-61
2022/01/24 11:32:54;;;;;;;6.93;5.33;;;5.90;39.40;;;;;;4972778;28;20221;-62
2022/01/24 11:35:38;;;;;;;9.03;6.63;;;6.00;1.00;;;;;;4964925;28;20244;-62
2022/01/24 11:38:29;;;;;;;8.07;6.60;;;6.00;1.00;;;;;;4962226;28;20205;-62
2022/01/24 11:41:06;;;;;;;8.17;6.70;;;6.00;1.00;;;;;;4969864;28;20226;-62
2022/01/24 11:43:40;;;;;;;8.70;6.43;;;6.10;1.00;;;;;;4967129;28;20220;-62
2022/01/24 11:46:52;;;;;;;7.00;6.30;;;6.00;1.00;;;;;;4978001;28;20224;-63
2022/01/24 11:49:32;;;;;;;7.53;6.17;;;6.10;1.00;;;;;;4968770;28;20306;-63
2022/01/24 11:52:14;;;;;;;7.37;6.57;;;6.10;1.00;;;;;;4965243;28;20206;-63
2022/01/24 11:54:46;;;;;;;7.17;6.07;;;6.10;1.00;;;;;;4952115;28;20197;-62
2022/01/24 11:57:27;;;;;;;8.30;5.90;;;6.00;1.00;;;;;;4979436;28;20613;-62
2022/01/24 12:00:06;;;;;;;11.70;7.10;;;6.10;1.00;;;;;;4972287;28;20689;-62
2022/01/24 12:02:44;;;;;;;8.63;6.83;;;6.20;1.00;;;;;;4963275;28;20202;-63
2022/01/24 12:05:18;;;;;;;12.23;7.53;;;6.00;1.00;;;;;;4963828;28;20236;-63
2022/01/24 12:07:51;;;;;;;11.17;7.57;;;6.10;1.00;;;;;;4949193;28;20351;-63
2022/01/24 12:10:33;;;;;;;9.03;6.53;;;6.20;1.00;;;;;;4954364;28;20296;-62
2022/01/24 12:13:09;;;;;;;9.30;7.33;;;6.30;1.00;;;;;;4969161;28;20252;-63
2022/01/24 12:15:38;;;;;;;9.23;7.33;;;6.30;1.00;;;;;;4942034;28;20252;-62
2022/01/24 12:18:26;;;;;;;7.07;6.37;;;6.10;1.00;;;;;;4928645;28;20380;-62
2022/01/24 12:21:07;;;;;;;8.97;6.10;;;6.20;1.00;;;;;;4943737;28;20230;-63
2022/01/24 12:23:38;;;;;;;9.83;6.57;;;6.40;1.00;;;;;;4942905;28;20229;-65
2022/01/24 12:26:29;;;;;;;15.93;10.10;;;6.50;1.00;;;;;;4959760;28;20186;-65
2022/01/24 12:29:04;;;;;;;11.80;6.83;;;6.50;1.00;;;;;;4958758;28;20190;-63
2022/01/24 12:31:35;;;;;;;7.13;6.23;;;6.20;1.00;;;;;;4933081;28;21167;-64
2022/01/24 12:34:23;;;;;;;7.50;6.17;;;6.20;1.00;;;;;;4940105;28;20274;-63
2022/01/24 12:37:00;;;;;;;10.27;7.10;;;6.20;1.00;;;;;;4941442;28;20213;-63
2022/01/24 12:39:34;;;;;;;8.80;6.90;;;6.10;1.00;;;;;;4962275;28;20674;-63
2022/01/24 12:42:13;;;;;;;8.27;6.67;;;6.10;1.00;;;;;;4961950;28;20254;-62
2022/01/24 12:47:10;;;;;;;6.80;6.07;;;6.10;1.00;;;;;;4960478;28;20254;-63
2022/01/24 12:49:37;;;;;;;7.83;6.63;;;6.00;1.00;;;;;;4943717;28;20202;-62
2022/01/24 12:52:10;;;;;;;9.53;7.00;;;5.90;1.00;;;;;;4947921;28;20740;-63
2022/01/24 12:54:44;;;;;;;19.47;13.13;;;6.00;1.00;;;;;;4947754;28;20230;-62
2022/01/24 12:57:16;;;;;;;14.13;8.67;;;6.00;1.00;;;;;;4959147;28;20692;-62
2022/01/24 13:00:08;;;;;;;7.13;5.97;;;5.90;1.00;;;;;;4911340;28;20260;-62
2022/01/24 13:02:38;;;;;;;8.77;7.23;;;5.80;1.00;;;;;;4947074;28;20206;-62
2022/01/24 13:05:23;;;;;;;14.33;11.90;;;5.80;1.00;;;;;;4947323;28;20266;-63
2022/01/24 13:07:57;;;;;;;7.67;6.87;;;5.90;1.00;;;;;;4959522;28;20198;-62
2022/01/24 13:10:27;;;;;;;9.10;7.43;;;5.80;1.00;;;;;;4953761;28;20227;-63
2022/01/24 13:13:07;;;;;;;25.03;15.17;;;5.90;1.00;;;;;;4933040;28;20668;-62
2022/01/24 13:21:26;;;;;;;9.57;7.23;;;5.90;1.00;;;;;;4959589;28;20271;-62
2022/01/24 13:24:00;;;;;;;14.07;7.37;;;5.80;1.00;;;;;;4965435;28;20872;-63
2022/01/24 13:26:27;;;;;;;8.33;6.33;;;5.90;1.00;;;;;;4967110;28;20202;-64
2022/01/24 13:29:05;;;;;;;8.80;7.13;;;5.60;1.00;;;;;;4970105;28;20206;-63
2022/01/24 13:31:36;;;;;;;10.20;6.97;;;5.70;19.90;;;;;;4954009;28;20519;-62
2022/01/24 13:34:09;;;;;;;7.30;6.50;;;5.70;1.00;;;;;;4978961;28;20256;-67
2022/01/24 13:36:38;;;;;;;10.73;7.87;;;5.90;1.00;;;;;;4979251;28;20193;-63
2022/01/24 13:39:05;;;;;;;7.33;6.33;;;6.00;1.00;;;;;;4963118;28;20201;-62
2022/01/24 13:41:34;;;;;;;10.40;7.03;;;6.10;1.00;;;;;;4980774;28;20203;-63
2022/01/24 13:44:07;;;;;;;10.40;7.40;;;6.00;1.00;;;;;;4977597;28;20672;-62
2022/01/24 13:46:39;;;;;;;14.83;9.77;;;5.80;1.00;;;;;;4948779;28;20193;-62
2022/01/24 13:49:16;;;;;;;12.33;7.20;;;5.90;2.50;;;;;;4962256;28;20204;-62
2022/01/24 13:51:51;;;;;;;10.13;6.43;;;5.80;1.00;;;;;;4974570;28;20245;-62
2022/01/24 13:54:29;;;;;;;9.60;7.47;;;5.70;10.90;;;;;;4946190;28;20280;-63
2022/01/24 13:57:04;;;;;;;8.57;6.97;;;5.60;54.10;;;;;;4961049;28;20197;-62
2022/01/24 13:59:33;;;;;;;10.17;7.80;;;5.60;20.30;;;;;;4953974;28;20217;-62
2022/01/24 14:02:03;;;;;;;30.40;21.57;;;5.60;87.00;;;;;;4964951;28;20207;-63
2022/01/24 14:04:43;;;;;;;38.00;21.67;;;5.50;99.90;;;;;;4963306;28;20229;-62
2022/01/24 14:07:21;;;;;;;27.23;17.93;;;5.50;89.60;;;;;;4978362;28;20197;-63
2022/01/24 14:10:09;;;;;;;40.30;26.13;;;5.40;90.00;;;;;;4960987;28;20206;-63
2022/01/24 14:12:47;;;;;;;12.97;11.57;;;5.50;99.90;;;;;;4976945;28;20697;-62
2022/01/24 14:15:43;;;;;;;12.57;9.17;;;5.50;99.90;;;;;;4965845;28;20787;-62
2022/01/24 14:20:48;;;;;;;9.00;8.10;;;5.60;12.70;;;;;;4959589;28;20217;-62
2022/01/24 14:23:38;;;;;;;9.50;8.00;;;5.60;3.80;;;;;;4948612;28;20280;-62
2022/01/24 14:26:20;;;;;;;9.20;7.33;;;5.70;30.80;;;;;;4974378;28;20225;-63
2022/01/24 14:29:02;;;;;;;9.60;7.07;;;5.80;16.20;;;;;;4967888;28;20202;-65
2022/01/24 14:31:29;;;;;;;12.43;8.23;;;5.90;1.00;;;;;;4978182;28;20304;-64
2022/01/24 14:34:04;;;;;;;11.73;7.53;;;5.70;1.00;;;;;;4948967;28;20233;-64
2022/01/24 14:36:34;;;;;;;13.07;7.30;;;5.60;1.00;;;;;;4980097;28;20453;-63
2022/01/24 14:39:07;;;;;;;9.57;7.23;;;5.50;1.00;;;;;;4951441;28;20253;-63
2022/01/24 14:41:43;;;;;;;8.90;6.40;;;5.50;1.00;;;;;;4963963;28;20281;-62
2022/01/24 14:47:07;;;;;;;7.50;6.40;;;5.40;89.90;;;;;;4963727;28;20736;-62
2022/01/24 14:49:38;;;;;;;7.00;6.40;;;5.20;99.90;;;;;;4980399;28;20289;-61
2022/01/24 14:52:13;;;;;;;6.20;5.60;;;5.30;99.90;;;;;;4967285;28;20253;-62
2022/01/24 14:54:41;;;;;;;6.80;6.10;;;5.30;99.90;;;;;;4979441;28;20609;-62
2022/01/24 14:57:15;;;;;;;11.07;6.77;;;5.30;99.90;;;;;;4978477;28;20313;-61
2022/01/24 14:59:45;;;;;;;8.90;6.90;;;5.40;99.90;;;;;;4974478;28;20245;-62
2022/01/24 15:02:12;;;;;;;7.23;5.43;;;5.40;99.90;;;;;;4954823;28;20253;-62
2022/01/24 15:04:40;;;;;;;10.40;6.13;;;5.40;99.90;;;;;;4977942;28;20195;-63
2022/01/24 15:07:07;;;;;;;7.47;5.87;;;5.30;90.90;;;;;;4992141;28;20213;-62
2022/01/24 15:09:39;;;;;;;9.33;7.00;;;5.30;99.90;;;;;;4948788;28;20202;-63
2022/01/24 15:12:08;;;;;;;8.27;6.83;;;5.30;99.90;;;;;;4963208;28;20292;-62
2022/01/24 15:14:47;;;;;;;10.50;8.03;;;5.20;99.90;;;;;;4977944;28;20325;-62
2022/01/24 15:27:49;;;;;;;11.80;9.53;;;5.20;99.90;;;;;;4971549;28;20212;-63
2022/01/24 15:30:18;;;;;;;19.07;14.70;;;5.30;99.90;;;;;;4967696;28;20673;-62
2022/01/24 15:32:56;;;;;;;13.60;10.53;;;5.30;99.90;;;;;;4960257;28;20719;-62
2022/01/24 15:35:23;;;;;;;10.43;7.60;;;5.30;99.90;;;;;;4960810;28;20215;-62
2022/01/24 15:37:50;;;;;;;16.90;9.57;;;5.20;99.90;;;;;;4979393;28;20370;-62